createdAt,value
2022-10-05T00:02:19.182Z,90.71
2022-10-05T00:04:47.550Z,90.37
2022-10-05T00:07:16.800Z,90.24
2022-10-05T00:09:45.813Z,90.66
2022-10-05T00:12:17.980Z,91.07
2022-10-05T00:14:46.260Z,91.04
2022-10-05T00:17:28.377Z,91.26
2022-10-05T00:19:55.431Z,90.93
2022-10-05T00:22:24.745Z,91.01
2022-10-05T00:24:56.583Z,90.94
2022-10-05T00:27:25.915Z,90.32
2022-10-05T00:29:57.663Z,90.60
2022-10-05T00:32:24.035Z,90.53
2022-10-05T00:34:50.379Z,91.04
2022-10-05T00:37:17.205Z,91.36
2022-10-05T00:39:43.979Z,91.37
2022-10-05T00:42:48.483Z,91.30
2022-10-05T00:45:31.266Z,90.78
2022-10-05T00:47:57.945Z,90.81
2022-10-05T00:50:33.357Z,90.41
2022-10-05T00:53:21.795Z,91.59
2022-10-05T00:56:01.941Z,91.36
2022-10-05T00:58:40.279Z,91.01
2022-10-05T01:01:12.544Z,91.55
2022-10-05T01:04:03.978Z,92.13
2022-10-05T01:06:51.495Z,92.73
2022-10-05T01:09:53.683Z,93.50
2022-10-05T01:12:26.607Z,93.09
2022-10-05T01:15:04.306Z,95.02
2022-10-05T01:17:39.872Z,95.71
2022-10-05T01:20:39.722Z,93.73
2022-10-05T01:23:31.021Z,92.10
2022-10-05T01:26:00.799Z,91.96
2022-10-05T01:28:47.983Z,91.88
2022-10-05T01:31:31.986Z,92.49
2022-10-05T01:34:11.473Z,92.34
2022-10-05T01:36:57.615Z,92.12
2022-10-05T01:39:37.596Z,93.83
2022-10-05T01:42:30.546Z,96.19
2022-10-05T01:44:59.535Z,95.91
2022-10-05T01:47:45.239Z,96.69
2022-10-05T01:50:17.423Z,96.83
2022-10-05T01:53:02.132Z,97.26
2022-10-05T01:55:50.288Z,97.12
2022-10-05T01:58:26.127Z,96.71
2022-10-05T02:01:04.055Z,97.29
2022-10-05T02:03:40.344Z,97.33
2022-10-05T02:06:26.250Z,97.11
2022-10-05T02:08:59.288Z,96.81
2022-10-05T02:11:26.328Z,96.65
2022-10-05T02:13:57.146Z,96.81
2022-10-05T02:16:31.387Z,97.04
2022-10-05T02:19:03.328Z,96.52
2022-10-05T02:21:33.878Z,96.36
2022-10-05T02:24:07.472Z,96.82
2022-10-05T02:26:37.246Z,96.69
2022-10-05T02:29:09.467Z,96.19
2022-10-05T02:32:00.875Z,95.50
2022-10-05T02:34:40.486Z,95.73
2022-10-05T02:37:36.405Z,95.86
2022-10-05T02:40:39.840Z,95.29
2022-10-05T02:43:16.791Z,96.38
2022-10-05T02:45:43.134Z,96.21
2022-10-05T02:48:29.643Z,96.56
2022-10-05T02:51:10.202Z,97.11
2022-10-05T02:53:54.958Z,97.04
2022-10-05T02:56:48.751Z,96.96
2022-10-05T02:59:26.612Z,97.71
2022-10-05T03:02:01.600Z,97.17
2022-10-05T03:04:34.601Z,96.65
2022-10-05T03:07:23.399Z,96.37
2022-10-05T03:10:01.377Z,95.84
2022-10-05T03:13:13.280Z,96.25
2022-10-05T03:16:06.672Z,96.90
2022-10-05T03:18:42.272Z,97.40
2022-10-05T03:21:47.947Z,97.05
2022-10-05T03:24:35.532Z,98.21
2022-10-05T03:27:42.585Z,98.25
2022-10-05T03:30:26.372Z,98.99
2022-10-05T03:33:02.093Z,98.57
2022-10-05T03:35:59.411Z,98.53
2022-10-05T03:38:31.210Z,98.93
2022-10-05T03:41:06.568Z,99.10
2022-10-05T03:44:08.548Z,98.51
2022-10-05T03:46:51.636Z,98.77
2022-10-05T03:49:24.019Z,98.32
2022-10-05T03:52:16.613Z,98.10
2022-10-05T03:54:49.526Z,97.05
2022-10-05T03:57:20.917Z,96.60
2022-10-05T04:00:18.158Z,96.33
2022-10-05T04:03:03.486Z,95.42
2022-10-05T04:05:35.662Z,95.15
2022-10-05T04:08:12.420Z,95.04
2022-10-05T04:10:50.686Z,95.69
2022-10-05T04:13:31.431Z,96.34
2022-10-05T04:16:06.199Z,96.72
2022-10-05T04:18:36.662Z,97.25
2022-10-05T04:21:13.709Z,97.65
2022-10-05T04:23:48.227Z,97.63
2022-10-05T04:26:24.951Z,98.10
2022-10-05T04:29:05.172Z,99.04
2022-10-05T04:31:41.788Z,98.86
2022-10-05T04:34:53.450Z,99.09
2022-10-05T04:37:33.347Z,98.45
2022-10-05T04:40:16.371Z,98.57
2022-10-05T04:42:51.986Z,98.49
2022-10-05T04:45:41.079Z,99.07
2022-10-05T04:48:44.923Z,98.63
2022-10-05T04:51:34.521Z,99.09
2022-10-05T04:54:27.645Z,98.75
2022-10-05T04:56:59.768Z,98.37
2022-10-05T04:59:50.895Z,99.21
2022-10-05T05:02:44.513Z,98.88
2022-10-05T05:05:31.891Z,98.56
2022-10-05T05:08:27.857Z,98.54
2022-10-05T05:11:19.033Z,98.62
2022-10-05T05:14:05.987Z,98.51
2022-10-05T05:16:39.576Z,99.02
2022-10-05T05:19:08.904Z,99.57
2022-10-05T05:21:52.830Z,98.73
2022-10-05T05:24:40.999Z,99.64
2022-10-05T05:27:32.358Z,98.84
2022-10-05T05:30:34.239Z,98.71
2022-10-05T05:33:09.682Z,99.40
2022-10-05T05:35:43.878Z,98.66
2022-10-05T05:38:35.256Z,99.45
2022-10-05T05:41:14.337Z,99.05
2022-10-05T05:44:01.863Z,98.79
2022-10-05T05:47:02.841Z,99.16
2022-10-05T05:49:45.971Z,99.22
2022-10-05T05:52:32.167Z,98.96
2022-10-05T05:55:05.335Z,98.85
2022-10-05T05:57:43.228Z,98.63
2022-10-05T06:00:31.677Z,98.25
2022-10-05T06:02:58.172Z,98.02
2022-10-05T06:05:53.580Z,97.80
2022-10-05T06:08:40.427Z,98.69
2022-10-05T06:11:24.304Z,98.15
2022-10-05T06:13:51.251Z,98.07
2022-10-05T06:16:31.843Z,97.85
2022-10-05T06:19:14.264Z,97.95
2022-10-05T06:22:02.241Z,97.81
2022-10-05T06:24:36.658Z,97.48
2022-10-05T06:27:25.465Z,97.47
2022-10-05T06:30:05.126Z,97.89
2022-10-05T06:32:37.503Z,98.44
2022-10-05T06:35:08.290Z,97.32
2022-10-05T06:38:10.141Z,97.37
2022-10-05T06:40:51.320Z,97.39
2022-10-05T06:43:26.082Z,97.67
2022-10-05T06:46:10.938Z,98.65
2022-10-05T06:48:49.431Z,98.19
2022-10-05T06:51:26.844Z,97.80
2022-10-05T06:54:04.070Z,98.13
2022-10-05T06:56:45.975Z,98.50
2022-10-05T06:59:30.333Z,97.94
2022-10-05T07:02:28.380Z,97.81
2022-10-05T07:05:13.044Z,98.31
2022-10-05T07:07:58.064Z,98.65
2022-10-05T07:10:30.131Z,97.97
2022-10-05T07:13:09.111Z,98.01
2022-10-05T07:15:48.220Z,97.36
2022-10-05T07:18:33.916Z,97.41
2022-10-05T07:21:06.184Z,98.31
2022-10-05T07:23:45.021Z,98.79
2022-10-05T07:26:33.807Z,98.33
2022-10-05T07:29:16.583Z,98.86
2022-10-05T07:31:51.351Z,98.90
2022-10-05T07:34:20.408Z,98.33
2022-10-05T07:37:19.277Z,97.87
2022-10-05T07:40:10.461Z,97.24
2022-10-05T07:42:52.004Z,98.08
2022-10-05T07:45:42.898Z,98.37
2022-10-05T07:48:17.440Z,96.93
2022-10-05T07:50:58.925Z,97.12
2022-10-05T07:54:00.274Z,97.92
2022-10-05T07:56:37.437Z,98.74
2022-10-05T07:59:07.761Z,98.13
2022-10-05T08:01:44.638Z,97.60
2022-10-05T08:04:27.763Z,96.60
2022-10-05T08:07:07.114Z,97.43
2022-10-05T08:09:42.379Z,97.48
2022-10-05T08:12:24.719Z,96.10
2022-10-05T08:15:09.925Z,97.04
2022-10-05T08:17:39.496Z,95.13
2022-10-05T08:20:33.619Z,93.29
2022-10-05T08:23:16.123Z,95.20
2022-10-05T08:26:03.540Z,93.36
2022-10-05T08:29:12.847Z,94.40
2022-10-05T08:31:43.398Z,94.27
2022-10-05T08:34:27.753Z,95.01
2022-10-05T08:37:03.468Z,95.08
2022-10-05T08:39:37.466Z,93.78
2022-10-05T08:42:44.657Z,94.67
2022-10-05T08:45:58.362Z,94.39
2022-10-05T08:48:38.448Z,93.05
2022-10-05T08:51:18.287Z,93.02
2022-10-05T08:54:05.716Z,94.80
2022-10-05T08:56:35.747Z,92.94
2022-10-05T08:59:24.055Z,88.46
2022-10-05T09:02:15.035Z,84.47
2022-10-05T09:05:00.349Z,84.31
2022-10-05T09:07:59.160Z,83.47
2022-10-05T09:10:50.246Z,82.10
2022-10-05T09:13:25.672Z,77.55
2022-10-05T09:16:30.403Z,74.02
2022-10-05T09:19:15.558Z,75.69
2022-10-05T09:21:43.644Z,81.16
2022-10-05T09:24:13.139Z,77.63
2022-10-05T09:27:02.459Z,78.87
2022-10-05T09:29:31.797Z,79.08
2022-10-05T09:32:24.103Z,76.52
2022-10-05T09:35:13.428Z,73.70
2022-10-05T09:38:17.321Z,75.55
2022-10-05T09:40:59.923Z,73.44
2022-10-05T09:43:34.996Z,72.61
2022-10-05T09:46:32.714Z,72.73
2022-10-05T09:48:59.059Z,71.75
2022-10-05T09:51:28.372Z,71.45
2022-10-05T09:54:24.147Z,72.01
2022-10-05T09:57:15.173Z,69.40
2022-10-05T10:00:09.352Z,72.60
2022-10-05T10:03:12.799Z,70.80
2022-10-05T10:06:03.428Z,70.13
2022-10-05T10:08:46.760Z,68.60
2022-10-05T10:11:26.413Z,66.09
2022-10-05T10:14:11.662Z,65.29
2022-10-05T10:16:58.204Z,66.32
2022-10-05T10:19:57.657Z,67.34
2022-10-05T10:22:46.081Z,66.23
2022-10-05T10:25:52.550Z,63.44
2022-10-05T10:28:34.655Z,66.42
2022-10-05T10:31:19.992Z,64.71
2022-10-05T10:33:53.903Z,65.55
2022-10-05T10:36:46.693Z,68.29
2022-10-05T10:39:38.922Z,64.96
2022-10-05T10:42:36.797Z,65.87
2022-10-05T10:45:19.597Z,64.97
2022-10-05T10:48:00.219Z,61.84
2022-10-05T10:50:50.047Z,65.68
2022-10-05T10:53:41.642Z,64.60
2022-10-05T10:56:29.524Z,64.49
2022-10-05T10:59:17.302Z,64.77
2022-10-05T11:02:21.235Z,66.13
2022-10-05T11:05:06.075Z,66.11
2022-10-05T11:07:45.244Z,66.36
2022-10-05T11:10:20.719Z,62.72
2022-10-05T11:13:01.895Z,61.78
2022-10-05T11:15:47.054Z,62.44
2022-10-05T11:18:24.714Z,59.79
2022-10-05T11:21:20.388Z,61.51
2022-10-05T11:23:56.284Z,60.43
2022-10-05T11:26:57.845Z,61.65
2022-10-05T11:30:09.211Z,59.19
2022-10-05T11:32:44.473Z,60.82
2022-10-05T11:35:50.130Z,59.98
2022-10-05T11:38:46.160Z,61.53
2022-10-05T11:41:34.040Z,62.23
2022-10-05T11:44:39.320Z,63.39
2022-10-05T11:47:18.972Z,62.66
2022-10-05T11:49:57.379Z,64.11
2022-10-05T11:52:31.162Z,64.23
2022-10-05T11:55:11.821Z,64.73
2022-10-05T11:57:54.094Z,64.30
2022-10-05T12:00:24.190Z,64.33
2022-10-05T12:03:15.749Z,62.89
2022-10-05T12:06:08.710Z,62.96
2022-10-05T12:08:43.056Z,63.82
2022-10-05T12:11:46.290Z,62.17
2022-10-05T12:14:35.355Z,62.43
2022-10-05T12:17:14.965Z,61.14
2022-10-05T12:19:46.460Z,61.30
2022-10-05T12:22:33.714Z,59.86
2022-10-05T12:25:25.968Z,59.69
2022-10-05T12:27:56.674Z,59.46
2022-10-05T12:30:54.872Z,59.09
2022-10-05T12:33:38.362Z,59.02
2022-10-05T12:36:24.719Z,58.65
2022-10-05T12:38:56.916Z,59.89
2022-10-05T12:41:40.336Z,58.82
2022-10-05T12:44:45.115Z,60.58
2022-10-05T12:47:30.571Z,59.77
2022-10-05T12:50:09.096Z,59.81
2022-10-05T12:52:54.152Z,60.51
2022-10-05T12:55:21.659Z,59.81
2022-10-05T12:58:30.179Z,61.05
2022-10-05T13:01:23.167Z,61.49
2022-10-05T13:04:01.779Z,60.91
2022-10-05T13:06:43.735Z,60.69
2022-10-05T13:09:33.144Z,61.43
2022-10-05T13:12:07.276Z,60.38
2022-10-05T13:14:55.542Z,61.12
2022-10-05T13:17:26.494Z,61.57
2022-10-05T13:19:58.409Z,60.22
2022-10-05T13:22:35.988Z,60.53
2022-10-05T13:25:17.278Z,61.07
2022-10-05T13:28:05.756Z,59.52
2022-10-05T13:30:32.909Z,58.84
2022-10-05T13:33:14.965Z,59.67
2022-10-05T13:35:47.940Z,57.92
2022-10-05T13:38:46.799Z,59.27
2022-10-05T13:41:49.868Z,59.89
2022-10-05T13:44:39.094Z,58.46
2022-10-05T13:47:12.869Z,59.40
2022-10-05T13:49:51.271Z,58.78
2022-10-05T13:52:33.886Z,59.39
2022-10-05T13:55:12.828Z,58.34
2022-10-05T13:57:47.113Z,58.82
2022-10-05T14:00:26.942Z,59.86
2022-10-05T14:02:56.647Z,60.39
2022-10-05T14:05:32.994Z,59.54
2022-10-05T14:08:02.050Z,59.25
2022-10-05T14:10:38.999Z,58.64
2022-10-05T14:13:23.159Z,59.21
2022-10-05T14:15:59.377Z,58.32
2022-10-05T14:18:28.529Z,59.01
2022-10-05T14:21:13.892Z,58.98
2022-10-05T14:23:40.933Z,58.52
2022-10-05T14:26:37.739Z,58.59
2022-10-05T14:29:18.052Z,59.40
2022-10-05T14:32:14.716Z,58.46
2022-10-05T14:34:56.425Z,58.56
2022-10-05T14:37:25.974Z,58.27
2022-10-05T14:39:57.853Z,59.31
2022-10-05T14:42:28.502Z,57.63
2022-10-05T14:45:23.915Z,58.14
2022-10-05T14:48:06.093Z,57.23
2022-10-05T14:50:33.274Z,57.53
2022-10-05T14:53:12.102Z,58.50
2022-10-05T14:56:26.786Z,58.90
2022-10-05T14:59:23.398Z,59.72
2022-10-05T15:02:20.488Z,60.23
2022-10-05T15:05:00.753Z,61.77
2022-10-05T15:07:40.899Z,61.50
2022-10-05T15:10:29.800Z,61.22
2022-10-05T15:13:09.199Z,60.19
2022-10-05T15:16:03.584Z,59.76
2022-10-05T15:18:57.325Z,60.70
2022-10-05T15:21:45.593Z,61.85
2022-10-05T15:24:30.031Z,62.54
2022-10-05T15:27:04.406Z,63.41
2022-10-05T15:29:49.827Z,62.56
2022-10-05T15:32:57.748Z,59.20
2022-10-05T15:35:41.219Z,55.77
2022-10-05T15:38:21.061Z,55.81
2022-10-05T15:40:58.675Z,56.83
2022-10-05T15:43:30.776Z,56.62
2022-10-05T15:46:04.401Z,56.29
2022-10-05T15:48:50.000Z,56.17
2022-10-05T15:51:34.786Z,56.47
2022-10-05T15:54:32.613Z,57.41
2022-10-05T15:57:21.045Z,57.39
2022-10-05T16:00:01.938Z,58.35
2022-10-05T16:02:31.482Z,59.46
2022-10-05T16:05:05.063Z,60.26
2022-10-05T16:08:00.081Z,61.22
2022-10-05T16:10:26.597Z,61.41
2022-10-05T16:13:29.936Z,61.94
2022-10-05T16:16:11.891Z,62.38
2022-10-05T16:18:56.737Z,63.10
2022-10-05T16:21:34.938Z,63.94
2022-10-05T16:24:42.984Z,65.06
2022-10-05T16:27:20.540Z,66.57
2022-10-05T16:30:04.379Z,67.44
2022-10-05T16:32:37.343Z,68.07
2022-10-05T16:35:17.328Z,69.74
2022-10-05T16:38:13.494Z,71.37
2022-10-05T16:40:50.935Z,74.29
2022-10-05T16:43:26.280Z,74.54
2022-10-05T16:46:10.058Z,74.98
2022-10-05T16:49:00.039Z,74.96
2022-10-05T16:51:45.299Z,75.87
2022-10-05T16:54:19.769Z,76.83
2022-10-05T16:56:55.582Z,77.79
2022-10-05T16:59:56.287Z,78.34
2022-10-05T17:02:41.225Z,78.58
2022-10-05T17:05:13.543Z,79.94
2022-10-05T17:08:09.118Z,80.10
2022-10-05T17:10:57.051Z,81.59
2022-10-05T17:13:28.659Z,81.36
2022-10-05T17:16:03.813Z,81.23
2022-10-05T17:18:52.231Z,81.34
2022-10-05T17:21:34.632Z,82.25
2022-10-05T17:24:11.665Z,82.16
2022-10-05T17:26:58.179Z,82.48
2022-10-05T17:29:51.260Z,82.28
2022-10-05T17:32:18.031Z,82.63
2022-10-05T17:35:02.773Z,82.69
2022-10-05T17:38:18.117Z,81.63
2022-10-05T17:41:04.193Z,81.92
2022-10-05T17:43:33.056Z,82.40
2022-10-05T17:46:01.654Z,83.34
2022-10-05T17:48:50.965Z,83.58
2022-10-05T17:51:48.361Z,84.06
2022-10-05T17:54:50.303Z,84.51
2022-10-05T17:57:24.184Z,84.90
2022-10-05T17:59:53.878Z,84.43
2022-10-05T18:02:36.825Z,86.51
2022-10-05T18:05:04.691Z,86.09
2022-10-05T18:07:35.540Z,85.69
2022-10-05T18:10:17.234Z,85.98
2022-10-05T18:12:48.452Z,85.48
2022-10-05T18:15:24.262Z,85.73
2022-10-05T18:18:00.855Z,85.21
2022-10-05T18:20:31.569Z,86.55
2022-10-05T18:23:06.181Z,86.10
2022-10-05T18:25:47.588Z,85.36
2022-10-05T18:28:39.754Z,85.71
2022-10-05T18:31:37.640Z,85.97
2022-10-05T18:34:26.581Z,84.91
2022-10-05T18:36:56.559Z,86.05
2022-10-05T18:39:41.312Z,85.83
2022-10-05T18:42:27.121Z,85.77
2022-10-05T18:45:02.296Z,86.51
2022-10-05T18:48:07.295Z,86.36
2022-10-05T18:50:46.892Z,87.26
2022-10-05T18:53:43.321Z,87.27
2022-10-05T18:56:23.205Z,87.67
2022-10-05T18:59:01.704Z,87.28
2022-10-05T19:01:58.220Z,88.48
2022-10-05T19:04:30.193Z,89.63
2022-10-05T19:07:16.906Z,89.46
2022-10-05T19:10:02.026Z,88.75
2022-10-05T19:12:47.155Z,89.19
2022-10-05T19:15:17.100Z,90.66
2022-10-05T19:18:04.740Z,90.62
2022-10-05T19:21:08.707Z,90.88
2022-10-05T19:23:45.851Z,90.10
2022-10-05T19:26:31.235Z,88.99
2022-10-05T19:29:47.668Z,89.37
2022-10-05T19:32:30.296Z,89.24
2022-10-05T19:35:03.440Z,89.66
2022-10-05T19:38:22.596Z,89.49
2022-10-05T19:41:14.058Z,90.19
2022-10-05T19:44:07.900Z,90.08
2022-10-05T19:46:50.806Z,89.68
2022-10-05T19:49:52.243Z,90.59
2022-10-05T19:52:22.096Z,89.99
2022-10-05T19:55:01.959Z,90.35
2022-10-05T19:57:29.058Z,90.27
2022-10-05T19:59:57.783Z,91.04
2022-10-05T20:02:27.245Z,92.04
2022-10-05T20:04:55.504Z,92.77
2022-10-05T20:07:22.985Z,92.21
2022-10-05T20:09:50.426Z,90.88
2022-10-05T20:12:16.796Z,90.50
2022-10-05T20:15:02.085Z,89.66
2022-10-05T20:17:47.834Z,90.23
2022-10-05T20:20:32.064Z,89.42
2022-10-05T20:23:25.002Z,89.39
2022-10-05T20:26:11.942Z,89.70
2022-10-05T20:28:38.497Z,90.19
2022-10-05T20:31:08.601Z,90.00
2022-10-05T20:33:35.479Z,90.79
2022-10-05T20:36:03.844Z,90.64
2022-10-05T20:38:31.503Z,90.62
2022-10-05T20:40:58.542Z,90.90
2022-10-05T20:43:24.909Z,90.92
2022-10-05T20:45:52.168Z,91.09
2022-10-05T20:48:20.000Z,90.45
2022-10-05T20:50:47.209Z,90.67
2022-10-05T20:53:13.623Z,90.97
2022-10-05T20:55:40.357Z,90.10
2022-10-05T20:58:08.832Z,90.47
2022-10-05T21:00:54.284Z,90.94
2022-10-05T21:03:20.746Z,91.37
2022-10-05T21:05:47.137Z,90.89
2022-10-05T21:08:14.336Z,90.35
2022-10-05T21:10:40.827Z,91.04
2022-10-05T21:13:07.152Z,91.49
2022-10-05T21:15:34.004Z,91.32
2022-10-05T21:18:00.324Z,90.91
2022-10-05T21:20:27.078Z,91.90
2022-10-05T21:22:53.392Z,93.21
2022-10-05T21:25:19.715Z,92.56
2022-10-05T21:27:48.946Z,92.34
2022-10-05T21:30:15.361Z,91.57
2022-10-05T21:32:44.440Z,92.21
2022-10-05T21:35:11.790Z,92.40
2022-10-05T21:37:38.148Z,91.98
2022-10-05T21:40:04.890Z,91.88
2022-10-05T21:42:31.834Z,91.97
2022-10-05T21:44:58.156Z,93.99
2022-10-05T21:47:25.449Z,94.45
2022-10-05T21:49:52.399Z,95.27
2022-10-05T21:52:18.909Z,95.16
2022-10-05T21:54:45.695Z,93.38
2022-10-05T21:57:13.052Z,92.74
2022-10-05T21:59:40.252Z,93.34
2022-10-05T22:02:06.573Z,94.19
2022-10-05T22:04:33.319Z,94.20
2022-10-05T22:06:59.651Z,93.84
2022-10-05T22:09:26.070Z,92.97
2022-10-05T22:11:52.946Z,92.19
2022-10-05T22:14:19.528Z,92.64
2022-10-05T22:16:46.000Z,92.28
2022-10-05T22:19:19.276Z,91.68
2022-10-05T22:21:45.689Z,92.27
2022-10-05T22:24:12.408Z,91.83
2022-10-05T22:26:41.735Z,92.54
2022-10-05T22:29:08.560Z,92.17
2022-10-05T22:31:35.720Z,92.43
2022-10-05T22:34:02.126Z,92.44
2022-10-05T22:36:29.056Z,92.65
2022-10-05T22:38:55.438Z,92.83
2022-10-05T22:41:21.840Z,92.83
2022-10-05T22:43:49.093Z,92.57
2022-10-05T22:46:15.895Z,92.55
2022-10-05T22:48:42.338Z,92.90
2022-10-05T22:51:09.199Z,92.68
2022-10-05T22:53:35.885Z,93.17
2022-10-05T22:56:09.967Z,93.49
2022-10-05T22:58:37.134Z,93.57
2022-10-05T23:01:05.919Z,93.30
2022-10-05T23:03:33.719Z,93.92
2022-10-05T23:06:03.477Z,93.33
2022-10-05T23:08:31.686Z,96.77
2022-10-05T23:11:02.915Z,96.73
2022-10-05T23:13:29.738Z,96.53
2022-10-05T23:15:56.616Z,95.25
2022-10-05T23:18:23.603Z,94.67
2022-10-05T23:20:56.151Z,94.40
2022-10-05T23:23:23.687Z,93.95
2022-10-05T23:25:50.203Z,93.67
2022-10-05T23:28:17.076Z,93.20
2022-10-05T23:30:43.567Z,93.04
2022-10-05T23:33:10.007Z,93.19
2022-10-05T23:35:36.883Z,93.27
2022-10-05T23:38:03.641Z,93.27
2022-10-05T23:40:30.372Z,93.27
2022-10-05T23:42:57.124Z,94.06
2022-10-05T23:45:24.000Z,93.18
2022-10-05T23:47:50.315Z,93.85
2022-10-05T23:50:17.347Z,93.05
2022-10-05T23:52:43.683Z,93.41
2022-10-05T23:55:10.295Z,93.71
2022-10-05T23:57:38.161Z,93.55
